createdAt,value
2017-11-18T00:00:07.809Z,67.66
2017-11-18T00:02:33.771Z,66.66
2017-11-18T00:04:59.726Z,64.43
2017-11-18T00:07:25.660Z,66.13
2017-11-18T00:09:51.592Z,66.43
2017-11-18T00:12:17.555Z,66.24
2017-11-18T00:14:43.493Z,64.82
2017-11-18T00:17:09.450Z,66.27
2017-11-18T00:19:35.373Z,66.07
2017-11-18T00:22:01.301Z,66.94
2017-11-18T00:24:27.229Z,65.74
2017-11-18T00:26:53.162Z,64.21
2017-11-18T00:29:19.116Z,65.07
2017-11-18T00:31:45.054Z,64.03
2017-11-18T00:34:11.001Z,65.73
2017-11-18T00:36:36.929Z,65.75
2017-11-18T00:39:02.880Z,66.14
2017-11-18T00:41:28.840Z,66.13
2017-11-18T00:43:54.809Z,66.21
2017-11-18T00:46:20.802Z,66.64
2017-11-18T00:48:46.742Z,66.23
2017-11-18T00:51:12.698Z,66.77
2017-11-18T00:53:38.689Z,66.91
2017-11-18T00:56:04.600Z,64.83
2017-11-18T00:58:30.556Z,65.46
2017-11-18T01:00:56.508Z,64.92
2017-11-18T01:03:22.446Z,64.87
2017-11-18T01:05:48.382Z,64.46
2017-11-18T01:08:14.323Z,64.85
2017-11-18T01:10:40.256Z,64.64
2017-11-18T01:13:06.179Z,64.95
2017-11-18T01:15:32.134Z,64.87
2017-11-18T01:17:58.109Z,64.77
2017-11-18T01:20:24.042Z,64.83
2017-11-18T01:22:49.987Z,65.12
2017-11-18T01:25:15.917Z,65.26
2017-11-18T01:27:41.867Z,65.60
2017-11-18T01:30:07.829Z,66.16
2017-11-18T01:32:33.767Z,65.01
2017-11-18T01:34:59.710Z,65.60
2017-11-18T01:37:25.753Z,64.29
2017-11-18T01:39:51.682Z,64.55
2017-11-18T01:42:17.613Z,64.83
2017-11-18T01:44:43.562Z,65.98
2017-11-18T01:47:09.512Z,66.19
2017-11-18T01:49:35.440Z,66.81
2017-11-18T01:52:01.384Z,66.85
2017-11-18T01:54:27.318Z,67.78
2017-11-18T01:56:53.264Z,66.16
2017-11-18T01:59:19.221Z,66.39
2017-11-18T02:01:45.176Z,65.53
2017-11-18T02:04:11.128Z,65.87
2017-11-18T02:06:37.088Z,66.45
2017-11-18T02:09:03.057Z,66.33
2017-11-18T02:11:28.990Z,66.76
2017-11-18T02:13:54.983Z,65.81
2017-11-18T02:16:20.921Z,66.22
2017-11-18T02:18:46.863Z,67.29
2017-11-18T02:21:12.804Z,66.89
2017-11-18T02:23:38.728Z,66.49
2017-11-18T02:26:04.663Z,67.00
2017-11-18T02:28:30.584Z,66.90
2017-11-18T02:30:56.530Z,67.85
2017-11-18T02:33:22.492Z,67.90
2017-11-18T02:35:48.421Z,67.36
2017-11-18T02:38:14.403Z,66.60
2017-11-18T02:40:40.344Z,66.52
2017-11-18T02:43:06.268Z,66.34
2017-11-18T02:45:32.226Z,66.29
2017-11-18T02:47:58.150Z,66.75
2017-11-18T02:50:24.108Z,67.14
2017-11-18T02:52:50.050Z,66.86
2017-11-18T02:55:16.033Z,66.45
2017-11-18T02:57:41.972Z,66.82
2017-11-18T03:00:07.935Z,67.23
2017-11-18T03:02:33.890Z,66.70
2017-11-18T03:04:59.816Z,66.33
2017-11-18T03:07:25.740Z,66.01
2017-11-18T03:09:51.677Z,67.09
2017-11-18T03:12:17.618Z,66.56
2017-11-18T03:14:43.589Z,66.94
2017-11-18T03:17:09.520Z,66.94
2017-11-18T03:19:35.484Z,66.25
2017-11-18T03:22:01.449Z,67.92
2017-11-18T03:24:27.379Z,68.09
2017-11-18T03:26:53.313Z,67.84
2017-11-18T03:29:19.273Z,68.66
2017-11-18T03:31:45.208Z,68.80
2017-11-18T03:34:11.150Z,68.53
2017-11-18T03:36:37.089Z,68.61
2017-11-18T03:39:03.121Z,68.29
2017-11-18T03:41:29.067Z,68.09
2017-11-18T03:43:54.997Z,68.14
2017-11-18T03:46:20.948Z,68.66
2017-11-18T03:48:46.882Z,67.74
2017-11-18T03:51:12.828Z,68.22
2017-11-18T03:53:38.793Z,68.38
2017-11-18T03:56:04.740Z,67.09
2017-11-18T03:58:30.684Z,67.10
2017-11-18T04:00:56.632Z,68.76
2017-11-18T04:03:22.564Z,69.46
2017-11-18T04:05:48.506Z,68.52
2017-11-18T04:08:14.454Z,67.66
2017-11-18T04:10:40.387Z,67.32
2017-11-18T04:13:06.336Z,67.41
2017-11-18T04:15:32.280Z,67.46
2017-11-18T04:17:58.252Z,67.44
2017-11-18T04:20:24.189Z,68.48
2017-11-18T04:22:50.126Z,67.21
2017-11-18T04:25:16.057Z,68.03
2017-11-18T04:27:41.989Z,68.55
2017-11-18T04:30:07.930Z,67.66
2017-11-18T04:32:33.879Z,67.22
2017-11-18T04:34:59.824Z,66.99
2017-11-18T04:37:25.750Z,66.65
2017-11-18T04:39:51.685Z,66.47
2017-11-18T04:42:17.608Z,66.13
2017-11-18T04:44:43.550Z,67.73
2017-11-18T04:47:09.480Z,68.99
2017-11-18T04:49:35.404Z,69.65
2017-11-18T04:52:01.373Z,69.12
2017-11-18T04:54:27.328Z,67.64
2017-11-18T04:56:53.261Z,67.43
2017-11-18T04:59:19.188Z,68.29
2017-11-18T05:01:45.119Z,67.49
2017-11-18T05:04:11.195Z,66.66
2017-11-18T05:06:37.141Z,66.93
2017-11-18T05:09:03.105Z,67.41
2017-11-18T05:11:29.038Z,66.71
2017-11-18T05:13:54.972Z,66.97
2017-11-18T05:16:21.108Z,67.07
2017-11-18T05:18:47.039Z,66.45
2017-11-18T05:21:12.977Z,66.52
2017-11-18T05:23:38.912Z,66.98
2017-11-18T05:26:04.853Z,66.52
2017-11-18T05:28:30.783Z,67.33
2017-11-18T05:30:56.724Z,66.82
2017-11-18T05:33:22.652Z,67.27
2017-11-18T05:35:48.599Z,66.81
2017-11-18T05:38:14.549Z,66.01
2017-11-18T05:40:40.507Z,66.68
2017-11-18T05:43:06.583Z,66.24
2017-11-18T05:45:32.550Z,66.13
2017-11-18T05:47:58.497Z,65.87
2017-11-18T05:50:24.421Z,66.09
2017-11-18T05:52:50.368Z,66.52
2017-11-18T05:55:16.353Z,65.70
2017-11-18T05:57:42.291Z,65.51
2017-11-18T06:00:08.220Z,65.54
2017-11-18T06:02:34.269Z,66.39
2017-11-18T06:05:00.202Z,66.93
2017-11-18T06:07:26.138Z,66.37
2017-11-18T06:09:52.078Z,65.99
2017-11-18T06:12:18.063Z,66.54
2017-11-18T06:14:44.028Z,66.39
2017-11-18T06:17:09.989Z,65.78
2017-11-18T06:19:36.088Z,66.21
2017-11-18T06:22:02.037Z,65.67
2017-11-18T06:24:27.964Z,66.20
2017-11-18T06:26:53.917Z,66.18
2017-11-18T06:29:19.865Z,66.77
2017-11-18T06:31:45.824Z,65.87
2017-11-18T06:34:11.832Z,66.20
2017-11-18T06:36:37.752Z,66.30
2017-11-18T06:39:03.714Z,66.79
2017-11-18T06:41:29.658Z,66.81
2017-11-18T06:43:55.616Z,67.34
2017-11-18T06:46:21.561Z,67.04
2017-11-18T06:48:47.574Z,67.36
2017-11-18T06:51:13.501Z,67.11
2017-11-18T06:53:39.437Z,66.85
2017-11-18T06:56:05.455Z,66.61
2017-11-18T06:58:31.397Z,66.25
2017-11-18T07:00:57.328Z,67.20
2017-11-18T07:03:23.294Z,66.65
2017-11-18T07:05:49.238Z,66.23
2017-11-18T07:08:15.182Z,66.77
2017-11-18T07:10:41.191Z,66.97
2017-11-18T07:13:07.123Z,66.99
2017-11-18T07:15:33.068Z,67.05
2017-11-18T07:17:59.084Z,67.28
2017-11-18T07:20:25.022Z,67.50
2017-11-18T07:22:50.977Z,67.32
2017-11-18T07:25:17.004Z,67.15
2017-11-18T07:27:42.942Z,66.68
2017-11-18T07:30:08.873Z,66.81
2017-11-18T07:32:34.819Z,66.92
2017-11-18T07:35:00.754Z,66.49
2017-11-18T07:37:26.704Z,66.72
2017-11-18T07:39:52.629Z,66.60
2017-11-18T07:42:18.577Z,66.33
2017-11-18T07:44:44.796Z,66.44
2017-11-18T07:47:10.757Z,66.42
2017-11-18T07:49:36.733Z,66.35
2017-11-18T07:52:02.694Z,66.18
2017-11-18T07:54:28.625Z,66.18
2017-11-18T07:56:54.608Z,66.00
2017-11-18T07:59:20.568Z,65.80
2017-11-18T08:01:46.500Z,65.17
2017-11-18T08:04:12.456Z,65.44
2017-11-18T08:06:38.400Z,65.74
2017-11-18T08:09:04.349Z,66.06
2017-11-18T08:11:30.308Z,65.70
2017-11-18T08:13:56.333Z,65.84
2017-11-18T08:16:22.271Z,65.72
2017-11-18T08:18:48.233Z,65.58
2017-11-18T08:21:14.221Z,65.88
2017-11-18T08:23:40.157Z,66.11
2017-11-18T08:26:06.276Z,66.06
2017-11-18T08:28:32.213Z,66.20
2017-11-18T08:30:58.162Z,65.93
2017-11-18T08:33:24.099Z,66.06
2017-11-18T08:35:50.042Z,66.01
2017-11-18T08:38:16.063Z,65.81
2017-11-18T08:40:41.996Z,65.84
2017-11-18T08:43:07.962Z,66.07
2017-11-18T08:45:33.918Z,65.92
2017-11-18T08:47:59.858Z,65.65
2017-11-18T08:50:25.785Z,65.79
2017-11-18T08:52:51.796Z,65.75
2017-11-18T08:55:17.746Z,65.72
2017-11-18T08:57:43.702Z,65.07
2017-11-18T09:00:09.689Z,65.23
2017-11-18T09:02:35.654Z,64.96
2017-11-18T09:05:01.609Z,64.94
2017-11-18T09:07:27.567Z,64.80
2017-11-18T09:09:53.501Z,65.06
2017-11-18T09:12:19.497Z,64.48
2017-11-18T09:14:45.449Z,64.14
2017-11-18T09:17:11.397Z,64.54
2017-11-18T09:19:37.355Z,63.85
2017-11-18T09:22:03.302Z,63.32
2017-11-18T09:24:29.253Z,63.12
2017-11-18T09:26:55.197Z,62.59
2017-11-18T09:29:21.127Z,62.61
2017-11-18T09:31:47.078Z,62.65
2017-11-18T09:34:13.087Z,62.52
2017-11-18T09:36:39.078Z,62.46
2017-11-18T09:39:05.027Z,62.15
2017-11-18T09:41:30.973Z,61.84
2017-11-18T09:43:56.984Z,62.24
2017-11-18T09:46:22.924Z,61.14
2017-11-18T09:48:49.073Z,61.32
2017-11-18T09:51:14.997Z,61.28
2017-11-18T09:53:41.033Z,60.88
2017-11-18T09:56:06.970Z,60.76
2017-11-18T09:58:32.920Z,59.97
2017-11-18T10:00:58.852Z,59.68
2017-11-18T10:03:24.803Z,60.10
2017-11-18T10:05:50.773Z,59.68
2017-11-18T10:08:16.712Z,58.94
2017-11-18T10:10:42.699Z,58.87
2017-11-18T10:13:08.672Z,59.04
2017-11-18T10:15:34.614Z,58.81
2017-11-18T10:18:00.613Z,59.15
2017-11-18T10:20:26.580Z,59.17
2017-11-18T10:22:52.536Z,59.39
2017-11-18T10:25:18.487Z,59.11
2017-11-18T10:27:44.433Z,59.34
2017-11-18T10:30:10.381Z,59.02
2017-11-18T10:32:36.490Z,58.56
2017-11-18T10:35:02.433Z,58.52
2017-11-18T10:37:28.370Z,58.25
2017-11-18T10:39:54.321Z,57.81
2017-11-18T10:42:20.275Z,57.58
2017-11-18T10:44:46.248Z,57.79
2017-11-18T10:47:12.189Z,57.34
2017-11-18T10:49:38.331Z,56.98
2017-11-18T10:52:04.313Z,56.85
2017-11-18T10:54:30.361Z,58.34
2017-11-18T10:56:56.319Z,60.27
2017-11-18T10:59:22.284Z,59.67
2017-11-18T11:01:48.978Z,59.77
2017-11-18T11:04:14.920Z,58.23
2017-11-18T11:06:40.874Z,57.89
2017-11-18T11:09:06.839Z,58.84
2017-11-18T11:11:32.777Z,58.28
2017-11-18T11:13:58.711Z,57.94
2017-11-18T11:16:24.659Z,57.24
2017-11-18T11:18:50.621Z,56.94
2017-11-18T11:21:16.633Z,57.13
2017-11-18T11:23:42.586Z,56.77
2017-11-18T11:26:08.584Z,57.47
2017-11-18T11:28:34.694Z,56.94
2017-11-18T11:31:00.657Z,56.93
2017-11-18T11:33:26.619Z,57.91
2017-11-18T11:35:52.598Z,57.50
2017-11-18T11:38:18.541Z,57.63
2017-11-18T11:40:44.559Z,56.50
2017-11-18T11:43:10.546Z,56.68
2017-11-18T11:45:36.531Z,55.63
2017-11-18T11:48:02.468Z,55.21
2017-11-18T11:50:28.425Z,55.35
2017-11-18T11:52:54.409Z,53.70
2017-11-18T11:55:20.364Z,53.80
2017-11-18T11:57:46.304Z,53.72
2017-11-18T12:00:12.269Z,53.12
2017-11-18T12:02:38.221Z,52.67
2017-11-18T12:05:04.188Z,52.32
2017-11-18T12:07:30.165Z,51.86
2017-11-18T12:09:56.151Z,50.88
2017-11-18T12:12:22.097Z,50.22
2017-11-18T12:14:48.065Z,50.05
2017-11-18T12:17:13.997Z,50.15
2017-11-18T12:19:39.981Z,49.95
2017-11-18T12:22:05.929Z,50.77
2017-11-18T12:24:31.895Z,50.12
2017-11-18T12:26:57.845Z,49.85
2017-11-18T12:29:23.785Z,50.09
2017-11-18T12:31:49.732Z,49.91
2017-11-18T12:34:15.681Z,50.11
2017-11-18T12:36:41.651Z,49.33
2017-11-18T12:39:07.602Z,49.16
2017-11-18T12:41:33.537Z,49.52
2017-11-18T12:43:59.494Z,50.14
2017-11-18T12:46:25.565Z,48.71
2017-11-18T12:48:51.511Z,49.27
2017-11-18T12:51:17.468Z,49.27
2017-11-18T12:53:43.490Z,49.52
2017-11-18T12:56:09.453Z,49.51
2017-11-18T12:58:35.409Z,49.22
2017-11-18T13:01:01.409Z,49.50
2017-11-18T13:03:27.419Z,49.66
2017-11-18T13:05:53.391Z,49.90
2017-11-18T13:08:19.333Z,49.86
2017-11-18T13:10:45.280Z,49.88
2017-11-18T13:13:11.250Z,49.64
2017-11-18T13:15:37.188Z,49.70
2017-11-18T13:18:03.261Z,49.79
2017-11-18T13:20:29.201Z,50.05
2017-11-18T13:22:55.148Z,49.84
2017-11-18T13:25:21.083Z,49.65
2017-11-18T13:27:47.021Z,50.06
2017-11-18T13:30:13.011Z,49.94
2017-11-18T13:32:38.957Z,50.29
2017-11-18T13:35:04.876Z,50.59
2017-11-18T13:37:30.810Z,50.85
2017-11-18T13:39:56.761Z,50.76
2017-11-18T13:42:22.702Z,50.70
2017-11-18T13:44:48.664Z,51.05
2017-11-18T13:47:14.607Z,51.03
2017-11-18T13:49:40.545Z,51.20
2017-11-18T13:52:06.484Z,51.18
2017-11-18T13:54:32.403Z,51.39
2017-11-18T13:56:58.359Z,51.37
2017-11-18T13:59:24.285Z,54.76
2017-11-18T14:01:50.254Z,52.36
2017-11-18T14:04:16.194Z,52.33
2017-11-18T14:06:42.131Z,52.03
2017-11-18T14:09:08.097Z,52.93
2017-11-18T14:11:34.044Z,51.71
2017-11-18T14:14:00.015Z,50.80
2017-11-18T14:16:25.955Z,51.20
2017-11-18T14:18:51.900Z,51.61
2017-11-18T14:21:17.846Z,51.25
2017-11-18T14:23:43.785Z,51.24
2017-11-18T14:26:09.732Z,50.89
2017-11-18T14:28:35.760Z,50.79
2017-11-18T14:31:01.705Z,51.02
2017-11-18T14:33:27.641Z,50.81
2017-11-18T14:35:53.602Z,51.11
2017-11-18T14:38:19.571Z,51.51
2017-11-18T14:40:45.517Z,51.10
2017-11-18T14:43:11.487Z,51.47
2017-11-18T14:45:37.441Z,51.38
2017-11-18T14:48:03.424Z,51.30
2017-11-18T14:50:29.385Z,51.05
2017-11-18T14:52:55.345Z,51.15
2017-11-18T14:55:21.394Z,51.23
2017-11-18T14:57:47.392Z,50.59
2017-11-18T15:00:13.330Z,50.56
2017-11-18T15:02:39.289Z,50.52
2017-11-18T15:05:05.264Z,50.27
2017-11-18T15:07:31.211Z,50.75
2017-11-18T15:09:57.194Z,50.70
2017-11-18T15:12:23.130Z,50.39
2017-11-18T15:14:49.088Z,50.67
2017-11-18T15:17:15.113Z,50.40
2017-11-18T15:19:42.423Z,50.28
2017-11-18T15:22:08.597Z,50.23
2017-11-18T15:24:34.807Z,50.61
2017-11-18T15:27:01.650Z,50.00
2017-11-18T15:29:27.914Z,50.50
2017-11-18T15:31:54.174Z,50.83
2017-11-18T15:34:20.983Z,50.69
2017-11-18T15:36:47.277Z,50.58
2017-11-18T15:39:13.446Z,50.69
2017-11-18T15:41:39.779Z,50.41
2017-11-18T15:44:06.071Z,50.31
2017-11-18T15:46:32.248Z,50.42
2017-11-18T15:48:58.464Z,50.53
2017-11-18T15:51:24.720Z,50.79
2017-11-18T15:53:51.079Z,50.44
2017-11-18T15:56:17.555Z,50.48
2017-11-18T15:58:43.766Z,50.24
2017-11-18T16:01:09.976Z,50.14
2017-11-18T16:03:36.256Z,50.38
2017-11-18T16:06:02.492Z,50.54
2017-11-18T16:08:28.768Z,50.44
2017-11-18T16:10:54.952Z,50.61
2017-11-18T16:13:21.182Z,51.02
2017-11-18T16:15:47.365Z,50.89
2017-11-18T16:18:13.534Z,51.77
2017-11-18T16:20:40.268Z,51.01
2017-11-18T16:23:06.536Z,50.22
2017-11-18T16:25:32.936Z,55.92
2017-11-18T16:27:59.204Z,53.91
2017-11-18T16:30:25.448Z,50.34
2017-11-18T16:32:51.832Z,51.05
2017-11-18T16:35:18.774Z,50.24
2017-11-18T16:37:45.109Z,50.30
2017-11-18T16:40:11.383Z,50.65
2017-11-18T16:42:37.356Z,50.49
2017-11-18T16:45:03.289Z,50.42
2017-11-18T16:47:29.231Z,54.02
2017-11-18T16:49:55.292Z,56.14
2017-11-18T16:52:21.368Z,54.51
2017-11-18T16:54:47.344Z,57.71
2017-11-18T16:57:13.309Z,57.56
2017-11-18T16:59:39.253Z,56.08
2017-11-18T17:02:05.207Z,54.22
2017-11-18T17:04:31.156Z,55.06
2017-11-18T17:06:57.088Z,52.79
2017-11-18T17:09:23.051Z,50.50
2017-11-18T17:11:49.001Z,50.95
2017-11-18T17:14:14.940Z,50.43
2017-11-18T17:16:40.876Z,50.49
2017-11-18T17:19:06.827Z,49.58
2017-11-18T17:21:32.796Z,49.95
2017-11-18T17:23:58.740Z,50.63
2017-11-18T17:26:24.694Z,50.64
2017-11-18T17:28:50.655Z,49.63
2017-11-18T17:31:16.710Z,50.14
2017-11-18T17:33:42.688Z,49.86
2017-11-18T17:36:08.639Z,50.15
2017-11-18T17:38:34.601Z,50.03
2017-11-18T17:41:00.553Z,50.10
2017-11-18T17:43:26.509Z,50.03
2017-11-18T17:45:52.452Z,49.93
2017-11-18T17:48:18.396Z,50.41
2017-11-18T17:50:44.344Z,49.98
2017-11-18T17:53:10.267Z,50.11
2017-11-18T17:55:36.213Z,50.66
2017-11-18T17:58:02.149Z,50.86
2017-11-18T18:00:28.132Z,50.79
2017-11-18T18:02:54.081Z,51.20
2017-11-18T18:05:20.029Z,51.38
2017-11-18T18:07:45.995Z,50.41
2017-11-18T18:10:11.990Z,50.54
2017-11-18T18:12:37.930Z,51.06
2017-11-18T18:15:03.869Z,52.33
2017-11-18T18:17:29.807Z,52.79
2017-11-18T18:19:56.939Z,54.15
2017-11-18T18:22:22.979Z,54.54
2017-11-18T18:24:48.944Z,54.59
2017-11-18T18:27:14.942Z,54.97
2017-11-18T18:29:40.897Z,55.50
2017-11-18T18:32:06.847Z,56.32
2017-11-18T18:34:32.813Z,56.56
2017-11-18T18:36:58.777Z,56.59
2017-11-18T18:39:24.741Z,57.83
2017-11-18T18:41:50.703Z,58.20
2017-11-18T18:44:16.701Z,58.78
2017-11-18T18:46:42.723Z,57.90
2017-11-18T18:49:08.716Z,58.06
2017-11-18T18:51:34.693Z,59.16
2017-11-18T18:54:00.681Z,58.27
2017-11-18T18:56:26.709Z,58.90
2017-11-18T18:58:52.724Z,58.84
2017-11-18T19:01:18.665Z,59.51
2017-11-18T19:03:44.789Z,59.60
2017-11-18T19:06:10.745Z,59.88
2017-11-18T19:08:36.677Z,59.60
2017-11-18T19:11:02.626Z,60.24
2017-11-18T19:13:28.575Z,59.51
2017-11-18T19:15:54.599Z,60.08
2017-11-18T19:18:20.599Z,59.85
2017-11-18T19:20:46.555Z,60.44
2017-11-18T19:23:12.513Z,60.05
2017-11-18T19:25:38.484Z,59.86
2017-11-18T19:28:04.455Z,60.32
2017-11-18T19:30:30.405Z,62.16
2017-11-18T19:32:56.349Z,60.37
2017-11-18T19:35:22.289Z,59.82
2017-11-18T19:37:48.248Z,59.92
2017-11-18T19:40:14.326Z,60.15
2017-11-18T19:42:40.350Z,69.13
2017-11-18T19:45:06.328Z,63.34
2017-11-18T19:47:32.286Z,64.92
2017-11-18T19:49:58.229Z,68.04
2017-11-18T19:52:24.701Z,66.98
2017-11-18T19:54:50.635Z,67.66
2017-11-18T19:57:16.583Z,65.66
2017-11-18T19:59:42.517Z,65.57
2017-11-18T20:02:08.513Z,63.34
2017-11-18T20:04:34.464Z,61.89
2017-11-18T20:07:00.405Z,61.15
2017-11-18T20:09:26.359Z,60.66
2017-11-18T20:11:52.355Z,60.30
2017-11-18T20:14:18.369Z,60.37
2017-11-18T20:16:44.329Z,60.16
2017-11-18T20:19:10.268Z,60.41
2017-11-18T20:21:36.314Z,60.47
2017-11-18T20:24:02.280Z,60.40
2017-11-18T20:26:28.221Z,60.28
2017-11-18T20:28:54.155Z,60.13
2017-11-18T20:31:20.222Z,60.60
2017-11-18T20:33:46.188Z,60.47
2017-11-18T20:36:12.131Z,60.50
2017-11-18T20:38:38.175Z,61.25
2017-11-18T20:41:04.137Z,61.48
2017-11-18T20:43:30.067Z,61.35
2017-11-18T20:45:56.032Z,61.09
2017-11-18T20:48:21.974Z,60.99
2017-11-18T20:50:47.935Z,60.44
2017-11-18T20:53:13.879Z,60.31
2017-11-18T20:55:39.849Z,60.18
2017-11-18T20:58:05.787Z,60.54
2017-11-18T21:00:31.781Z,59.98
2017-11-18T21:02:57.726Z,60.36
2017-11-18T21:05:23.769Z,60.13
2017-11-18T21:07:49.702Z,59.84
2017-11-18T21:10:15.642Z,59.52
2017-11-18T21:12:41.600Z,59.71
2017-11-18T21:15:07.549Z,59.45
2017-11-18T21:17:33.517Z,60.01
2017-11-18T21:19:59.449Z,59.99
2017-11-18T21:22:25.404Z,60.46
2017-11-18T21:24:51.361Z,60.34
2017-11-18T21:27:17.294Z,60.36
2017-11-18T21:29:43.379Z,60.97
2017-11-18T21:32:09.393Z,60.64
2017-11-18T21:34:35.345Z,59.76
2017-11-18T21:37:01.317Z,60.67
2017-11-18T21:39:27.253Z,60.93
2017-11-18T21:41:53.202Z,60.92
2017-11-18T21:44:19.132Z,61.15
2017-11-18T21:46:45.086Z,60.58
2017-11-18T21:49:11.013Z,60.78
2017-11-18T21:51:36.934Z,60.90
2017-11-18T21:54:02.907Z,60.62
2017-11-18T21:56:28.845Z,61.05
2017-11-18T21:58:54.809Z,60.84
2017-11-18T22:01:20.734Z,60.34
2017-11-18T22:03:46.751Z,60.44
2017-11-18T22:06:12.683Z,59.97
2017-11-18T22:08:38.693Z,60.63
2017-11-18T22:11:04.621Z,60.50
2017-11-18T22:13:30.562Z,60.19
2017-11-18T22:15:56.557Z,60.68
2017-11-18T22:18:22.477Z,60.61
2017-11-18T22:20:48.451Z,60.55
2017-11-18T22:23:14.387Z,60.66
2017-11-18T22:25:40.327Z,61.20
2017-11-18T22:28:06.266Z,61.27
2017-11-18T22:30:32.193Z,60.63
2017-11-18T22:32:58.139Z,61.00
2017-11-18T22:35:24.079Z,60.66
2017-11-18T22:37:50.015Z,60.59
2017-11-18T22:40:15.966Z,61.03
2017-11-18T22:42:41.888Z,60.91
2017-11-18T22:45:07.829Z,60.87
2017-11-18T22:47:33.767Z,60.88
2017-11-18T22:49:59.704Z,60.60
2017-11-18T22:52:25.707Z,60.72
2017-11-18T22:54:51.641Z,61.04
2017-11-18T22:57:17.588Z,61.02
2017-11-18T22:59:43.528Z,60.77
2017-11-18T23:02:09.480Z,60.68
2017-11-18T23:04:35.418Z,60.35
2017-11-18T23:07:01.373Z,60.85
2017-11-18T23:09:27.324Z,61.07
2017-11-18T23:11:53.254Z,60.60
2017-11-18T23:14:19.176Z,60.50
2017-11-18T23:16:45.325Z,60.63
2017-11-18T23:19:11.274Z,60.39
2017-11-18T23:21:37.227Z,60.72
2017-11-18T23:24:03.165Z,60.40
2017-11-18T23:26:29.107Z,60.59
2017-11-18T23:28:55.076Z,60.30
2017-11-18T23:31:21.000Z,59.96
2017-11-18T23:33:46.931Z,60.36
2017-11-18T23:36:12.885Z,60.51
2017-11-18T23:38:38.901Z,60.88
2017-11-18T23:41:04.864Z,60.88
2017-11-18T23:43:30.844Z,60.67
2017-11-18T23:45:56.776Z,60.70
2017-11-18T23:48:22.718Z,60.91
2017-11-18T23:50:48.673Z,60.65
2017-11-18T23:53:14.612Z,60.40
2017-11-18T23:55:40.591Z,60.44
2017-11-18T23:58:06.546Z,60.84
